sensor_id;sensor_type;location;lat;lon;timestamp;pressure;altitude;pressure_sealevel;temperature;humidity
11692;BME280;33659;42.672;23.354;2023-06-22T00:02:28;69459.25;;;23.08;62.82
11692;BME280;33659;42.672;23.354;2023-06-22T00:04:54;69457.09;;;23.06;62.84
11692;BME280;33659;42.672;23.354;2023-06-22T00:07:21;69452.16;;;23.02;62.65
11692;BME280;33659;42.672;23.354;2023-06-22T00:09:49;69455.44;;;23.05;62.56
11692;BME280;33659;42.672;23.354;2023-06-22T00:12:16;69459.72;;;23.06;62.20
11692;BME280;33659;42.672;23.354;2023-06-22T00:14:43;69458.16;;;23.07;62.40
11692;BME280;33659;42.672;23.354;2023-06-22T00:17:09;69451.06;;;23.01;62.49
11692;BME280;33659;42.672;23.354;2023-06-22T00:19:38;69371.41;;;22.90;62.79
11692;BME280;33659;42.672;23.354;2023-06-22T00:22:05;69425.84;;;22.75;63.37
11692;BME280;33659;42.672;23.354;2023-06-22T00:24:32;69410.66;;;22.63;64.16
11692;BME280;33659;42.672;23.354;2023-06-22T00:26:59;69325.69;;;22.50;64.49
11692;BME280;33659;42.672;23.354;2023-06-22T00:29:26;69385.53;;;22.39;65.43
11692;BME280;33659;42.672;23.354;2023-06-22T00:31:53;69374.53;;;22.27;65.46
11692;BME280;33659;42.672;23.354;2023-06-22T00:34:20;69286.97;;;22.14;66.54
11692;BME280;33659;42.672;23.354;2023-06-22T00:36:48;69341.88;;;21.99;66.60
11692;BME280;33659;42.672;23.354;2023-06-22T00:39:17;69329.88;;;21.87;67.07
11692;BME280;33659;42.672;23.354;2023-06-22T00:41:43;69314.59;;;21.73;66.78
11692;BME280;33659;42.672;23.354;2023-06-22T00:44:10;69315.69;;;21.74;66.13
11692;BME280;33659;42.672;23.354;2023-06-22T00:46:37;69309.69;;;21.69;65.60
11692;BME280;33659;42.672;23.354;2023-06-22T00:49:04;69305.34;;;21.65;65.01
11692;BME280;33659;42.672;23.354;2023-06-22T00:51:32;69307.97;;;21.65;66.36
11692;BME280;33659;42.672;23.354;2023-06-22T00:54:00;69307.44;;;21.64;65.76
11692;BME280;33659;42.672;23.354;2023-06-22T00:56:27;69312.44;;;21.71;66.27
11692;BME280;33659;42.672;23.354;2023-06-22T00:58:55;69324.34;;;21.80;66.54
11692;BME280;33659;42.672;23.354;2023-06-22T01:01:23;69336.41;;;21.94;66.30
11692;BME280;33659;42.672;23.354;2023-06-22T01:03:50;69346.16;;;22.00;65.19
11692;BME280;33659;42.672;23.354;2023-06-22T01:06:21;69352.81;;;22.09;64.78
11692;BME280;33659;42.672;23.354;2023-06-22T01:09:02;69362.56;;;22.15;64.70
11692;BME280;33659;42.672;23.354;2023-06-22T01:11:36;69371.91;;;22.27;64.45
11692;BME280;33659;42.672;23.354;2023-06-22T01:14:10;69311.50;;;22.37;63.44
11692;BME280;33659;42.672;23.354;2023-06-22T01:16:41;69307.59;;;22.31;60.77
11692;BME280;33659;42.672;23.354;2023-06-22T01:19:34;69291.88;;;22.19;61.65
11692;BME280;33659;42.672;23.354;2023-06-22T01:22:03;69284.78;;;22.12;61.81
11692;BME280;33659;42.672;23.354;2023-06-22T01:24:44;69345.06;;;21.99;62.97
11692;BME280;33659;42.672;23.354;2023-06-22T01:27:19;69352.06;;;22.03;63.82
11692;BME280;33659;42.672;23.354;2023-06-22T01:29:55;69345.69;;;22.02;64.43
11692;BME280;33659;42.672;23.354;2023-06-22T01:32:26;69352.25;;;22.08;64.88
11692;BME280;33659;42.672;23.354;2023-06-22T01:34:53;69356.09;;;22.12;62.86
11692;BME280;33659;42.672;23.354;2023-06-22T01:37:21;69347.25;;;22.01;63.28
11692;BME280;33659;42.672;23.354;2023-06-22T01:39:49;69328.25;;;21.86;63.88
11692;BME280;33659;42.672;23.354;2023-06-22T01:42:17;69317.88;;;21.76;63.88
11692;BME280;33659;42.672;23.354;2023-06-22T01:44:44;69312.44;;;21.71;65.10
11692;BME280;33659;42.672;23.354;2023-06-22T01:47:13;69317.78;;;21.74;64.66
11692;BME280;33659;42.672;23.354;2023-06-22T01:49:40;69303.16;;;21.62;65.18
11692;BME280;33659;42.672;23.354;2023-06-22T01:52:07;69331.50;;;21.89;64.58
11692;BME280;33659;42.672;23.354;2023-06-22T01:54:34;69269.50;;;21.98;64.32
11692;BME280;33659;42.672;23.354;2023-06-22T01:57:01;69275.50;;;22.03;64.63
11692;BME280;33659;42.672;23.354;2023-06-22T01:59:32;69353.25;;;22.07;64.30
11692;BME280;33659;42.672;23.354;2023-06-22T02:02:04;69359.28;;;22.12;64.17
11692;BME280;33659;42.672;23.354;2023-06-22T02:04:37;69287.50;;;22.14;64.53
11692;BME280;33659;42.672;23.354;2023-06-22T02:07:10;69363.19;;;22.19;64.38
11692;BME280;33659;42.672;23.354;2023-06-22T02:09:41;69369.09;;;22.22;64.36
11692;BME280;33659;42.672;23.354;2023-06-22T02:12:11;69366.44;;;22.22;65.11
11692;BME280;33659;42.672;23.354;2023-06-22T02:14:39;69373.47;;;22.26;65.32
11692;BME280;33659;42.672;23.354;2023-06-22T02:17:08;69290.25;;;22.17;64.90
11692;BME280;33659;42.672;23.354;2023-06-22T02:19:37;69357.09;;;22.10;64.96
11692;BME280;33659;42.672;23.354;2023-06-22T02:22:05;69355.53;;;22.11;64.92
11692;BME280;33659;42.672;23.354;2023-06-22T02:24:31;69355.53;;;22.11;65.10
11692;BME280;33659;42.672;23.354;2023-06-22T02:26:59;69344.59;;;22.01;65.23
11692;BME280;33659;42.672;23.354;2023-06-22T02:29:26;69343.44;;;21.98;65.32
11692;BME280;33659;42.672;23.354;2023-06-22T02:31:53;69329.34;;;21.87;65.62
11692;BME280;33659;42.672;23.354;2023-06-22T02:34:21;69324.41;;;21.82;65.84
11692;BME280;33659;42.672;23.354;2023-06-22T02:36:49;69319.53;;;21.78;66.07
11692;BME280;33659;42.672;23.354;2023-06-22T02:39:19;69324.34;;;21.80;66.00
11692;BME280;33659;42.672;23.354;2023-06-22T02:41:47;69322.16;;;21.78;65.88
11692;BME280;33659;42.672;23.354;2023-06-22T02:44:14;69250.34;;;21.77;66.34
11692;BME280;33659;42.672;23.354;2023-06-22T02:46:41;69324.34;;;21.80;65.80
11692;BME280;33659;42.672;23.354;2023-06-22T02:49:08;69318.97;;;21.77;65.90
11692;BME280;33659;42.672;23.354;2023-06-22T02:51:41;69316.78;;;21.75;66.00
11692;BME280;33659;42.672;23.354;2023-06-22T02:54:09;69321.06;;;21.77;66.03
11692;BME280;33659;42.672;23.354;2023-06-22T02:56:36;69239.09;;;21.72;66.12
11692;BME280;33659;42.672;23.354;2023-06-22T02:59:03;69316.78;;;21.75;65.77
11692;BME280;33659;42.672;23.354;2023-06-22T03:01:30;69319.97;;;21.76;66.00
11692;BME280;33659;42.672;23.354;2023-06-22T03:04:03;69326.44;;;21.79;66.13
11692;BME280;33659;42.672;23.354;2023-06-22T03:06:30;69322.78;;;21.81;65.95
11692;BME280;33659;42.672;23.354;2023-06-22T03:08:59;69323.88;;;21.82;65.99
11692;BME280;33659;42.672;23.354;2023-06-22T03:11:27;69323.78;;;21.79;66.35
11692;BME280;33659;42.672;23.354;2023-06-22T03:13:54;69254.25;;;21.83;66.14
11692;BME280;33659;42.672;23.354;2023-06-22T03:16:21;69260.25;;;21.89;66.37
11692;BME280;33659;42.672;23.354;2023-06-22T03:18:47;69339.59;;;21.94;66.09
11692;BME280;33659;42.672;23.354;2023-06-22T03:21:14;69347.72;;;21.99;66.14
11692;BME280;33659;42.672;23.354;2023-06-22T03:23:42;69345.69;;;22.02;66.16
11692;BME280;33659;42.672;23.354;2023-06-22T03:26:09;69348.44;;;22.05;66.43
11692;BME280;33659;42.672;23.354;2023-06-22T03:28:37;69358.81;;;22.14;66.24
11692;BME280;33659;42.672;23.354;2023-06-22T03:31:04;69351.63;;;22.05;65.81
11692;BME280;33659;42.672;23.354;2023-06-22T03:33:32;69297.78;;;22.22;65.55
11692;BME280;33659;42.672;23.354;2023-06-22T03:35:59;69362.09;;;22.17;65.95
11692;BME280;33659;42.672;23.354;2023-06-22T03:38:25;69294.06;;;22.21;65.78
11692;BME280;33659;42.672;23.354;2023-06-22T03:40:52;69377.84;;;22.30;65.90
11692;BME280;33659;42.672;23.354;2023-06-22T03:43:19;69315.16;;;22.35;65.05
11692;BME280;33659;42.672;23.354;2023-06-22T03:45:47;69312.59;;;22.38;64.32
11692;BME280;33659;42.672;23.354;2023-06-22T03:48:14;69315.84;;;22.41;63.98
11692;BME280;33659;42.672;23.354;2023-06-22T03:50:41;69384.94;;;22.36;63.85
11692;BME280;33659;42.672;23.354;2023-06-22T03:53:09;69308.75;;;22.34;63.64
11692;BME280;33659;42.672;23.354;2023-06-22T03:55:36;69382.72;;;22.34;63.71
11692;BME280;33659;42.672;23.354;2023-06-22T03:58:02;69377.38;;;22.32;63.72
11692;BME280;33659;42.672;23.354;2023-06-22T04:00:31;69384.94;;;22.36;63.83
11692;BME280;33659;42.672;23.354;2023-06-22T04:02:59;69390.38;;;22.41;64.07
11692;BME280;33659;42.672;23.354;2023-06-22T04:05:26;69389.38;;;22.43;64.07
11692;BME280;33659;42.672;23.354;2023-06-22T04:07:52;69386.00;;;22.37;63.92
11692;BME280;33659;42.672;23.354;2023-06-22T04:10:19;69373.00;;;22.28;64.25
11692;BME280;33659;42.672;23.354;2023-06-22T04:12:47;69372.38;;;22.25;64.13
11692;BME280;33659;42.672;23.354;2023-06-22T04:15:13;69368.00;;;22.21;64.40
11692;BME280;33659;42.672;23.354;2023-06-22T04:17:40;69365.34;;;22.21;64.41
11692;BME280;33659;42.672;23.354;2023-06-22T04:20:09;69369.72;;;22.25;64.70
11692;BME280;33659;42.672;23.354;2023-06-22T04:22:36;69300.06;;;22.26;64.69
11692;BME280;33659;42.672;23.354;2023-06-22T04:25:03;69384.28;;;22.33;64.92
11692;BME280;33659;42.672;23.354;2023-06-22T04:27:31;69384.94;;;22.36;64.93
11692;BME280;33659;42.672;23.354;2023-06-22T04:29:57;69319.13;;;22.44;64.37
11692;BME280;33659;42.672;23.354;2023-06-22T04:32:25;69378.91;;;22.31;64.86
11692;BME280;33659;42.672;23.354;2023-06-22T04:34:52;69342.88;;;21.97;65.36
11692;BME280;33659;42.672;23.354;2023-06-22T04:37:20;69326.50;;;21.82;66.36
11692;BME280;33659;42.672;23.354;2023-06-22T04:39:48;69321.69;;;21.80;66.70
11692;BME280;33659;42.672;23.354;2023-06-22T04:42:15;69259.63;;;21.86;66.55
11692;BME280;33659;42.672;23.354;2023-06-22T04:44:42;69337.50;;;21.95;66.96
11692;BME280;33659;42.672;23.354;2023-06-22T04:47:09;69284.78;;;22.12;66.42
11692;BME280;33659;42.672;23.354;2023-06-22T04:49:36;69300.50;;;22.24;65.41
11692;BME280;33659;42.672;23.354;2023-06-22T04:52:07;69377.91;;;22.32;65.27
11692;BME280;33659;42.672;23.354;2023-06-22T04:54:36;69327.69;;;22.47;64.70
11692;BME280;33659;42.672;23.354;2023-06-22T04:57:05;69343.56;;;22.64;65.03
11692;BME280;33659;42.672;23.354;2023-06-22T04:59:36;69353.31;;;22.71;64.26
11692;BME280;33659;42.672;23.354;2023-06-22T05:02:05;69426.31;;;22.73;64.31
11692;BME280;33659;42.672;23.354;2023-06-22T05:04:32;69444.53;;;22.94;63.85
11692;BME280;33659;42.672;23.354;2023-06-22T05:07:01;69381.84;;;23.03;63.81
11692;BME280;33659;42.672;23.354;2023-06-22T05:09:28;69462.53;;;23.11;63.57
11692;BME280;33659;42.672;23.354;2023-06-22T05:11:56;69471.81;;;23.20;63.75
11692;BME280;33659;42.672;23.354;2023-06-22T05:14:25;69489.81;;;23.37;63.68
11692;BME280;33659;42.672;23.354;2023-06-22T05:16:51;69431.41;;;23.46;63.06
11692;BME280;33659;42.672;23.354;2023-06-22T05:19:18;69504.03;;;23.50;62.31
11692;BME280;33659;42.672;23.354;2023-06-22T05:21:45;69516.50;;;23.59;62.09
11692;BME280;33659;42.672;23.354;2023-06-22T05:24:12;69454.34;;;23.68;61.41
11692;BME280;33659;42.672;23.354;2023-06-22T05:26:38;69528.09;;;23.72;61.37
11692;BME280;33659;42.672;23.354;2023-06-22T05:29:07;69455.59;;;23.74;61.54
11692;BME280;33659;42.672;23.354;2023-06-22T05:31:33;69538.38;;;23.80;61.29
11692;BME280;33659;42.672;23.354;2023-06-22T05:34:00;69547.66;;;23.88;61.09
11692;BME280;33659;42.672;23.354;2023-06-22T05:36:27;69474.53;;;23.87;60.48
11692;BME280;33659;42.672;23.354;2023-06-22T05:38:56;69470.56;;;23.95;60.26
11692;BME280;33659;42.672;23.354;2023-06-22T05:41:23;69558.66;;;24.01;60.08
11692;BME280;33659;42.672;23.354;2023-06-22T05:43:49;69562.97;;;24.02;60.00
11692;BME280;33659;42.672;23.354;2023-06-22T05:46:18;69571.16;;;24.10;60.00
11692;BME280;33659;42.672;23.354;2023-06-22T05:48:45;69502.91;;;24.13;59.75
11692;BME280;33659;42.672;23.354;2023-06-22T05:51:12;69577.63;;;24.14;59.41
11692;BME280;33659;42.672;23.354;2023-06-22T05:53:39;69581.44;;;24.17;59.28
11692;BME280;33659;42.672;23.354;2023-06-22T05:56:06;69582.16;;;24.23;59.14
11692;BME280;33659;42.672;23.354;2023-06-22T05:58:32;69595.19;;;24.32;58.94
11692;BME280;33659;42.672;23.354;2023-06-22T06:00:59;69600.69;;;24.38;58.14
11692;BME280;33659;42.672;23.354;2023-06-22T06:03:27;69609.88;;;24.44;57.98
11692;BME280;33659;42.672;23.354;2023-06-22T06:05:54;69543.31;;;24.51;57.58
11692;BME280;33659;42.672;23.354;2023-06-22T06:08:21;69618.16;;;24.54;57.38
11692;BME280;33659;42.672;23.354;2023-06-22T06:10:48;69554.69;;;24.59;57.24
11692;BME280;33659;42.672;23.354;2023-06-22T06:13:15;69631.28;;;24.66;57.64
11692;BME280;33659;42.672;23.354;2023-06-22T06:15:41;69541.69;;;24.49;57.58
11692;BME280;33659;42.672;23.354;2023-06-22T06:18:08;69582.53;;;24.18;58.77
11692;BME280;33659;42.672;23.354;2023-06-22T06:20:36;69481.06;;;23.93;59.48
11692;BME280;33659;42.672;23.354;2023-06-22T06:23:03;69471.16;;;23.81;60.25
11692;BME280;33659;42.672;23.354;2023-06-22T06:25:30;69548.19;;;23.89;60.49
11692;BME280;33659;42.672;23.354;2023-06-22T06:27:56;69556.47;;;23.99;60.46
11692;BME280;33659;42.672;23.354;2023-06-22T06:30:23;69563.59;;;24.05;60.85
11692;BME280;33659;42.672;23.354;2023-06-22T06:32:50;69578.16;;;24.14;60.63
11692;BME280;33659;42.672;23.354;2023-06-22T06:35:17;69518.19;;;24.27;60.10
11692;BME280;33659;42.672;23.354;2023-06-22T06:37:47;69529.13;;;24.38;59.21
11692;BME280;33659;42.672;23.354;2023-06-22T06:40:15;69531.94;;;24.43;59.12
11692;BME280;33659;42.672;23.354;2023-06-22T06:42:44;69544.88;;;24.50;58.43
11692;BME280;33659;42.672;23.354;2023-06-22T06:45:12;69625.81;;;24.61;58.44
11692;BME280;33659;42.672;23.354;2023-06-22T06:47:39;69552.03;;;24.76;58.32
11692;BME280;33659;42.672;23.354;2023-06-22T06:50:07;69578.34;;;24.86;58.17
11692;BME280;33659;42.672;23.354;2023-06-22T06:52:33;69590.25;;;24.95;58.40
11692;BME280;33659;42.672;23.354;2023-06-22T06:55:02;69569.91;;;24.88;58.05
11692;BME280;33659;42.672;23.354;2023-06-22T06:57:30;69668.44;;;25.01;58.17
11692;BME280;33659;42.672;23.354;2023-06-22T06:59:57;69667.81;;;24.98;58.03
11692;BME280;33659;42.672;23.354;2023-06-22T07:02:25;69595.72;;;25.00;58.05
11692;BME280;33659;42.672;23.354;2023-06-22T07:04:53;69594.63;;;24.99;58.33
11692;BME280;33659;42.672;23.354;2023-06-22T07:07:20;69575.44;;;24.96;58.04
11692;BME280;33659;42.672;23.354;2023-06-22T07:09:47;69671.16;;;25.03;58.24
11692;BME280;33659;42.672;23.354;2023-06-22T07:12:15;69679.94;;;25.11;58.19
11692;BME280;33659;42.672;23.354;2023-06-22T07:14:42;69628.44;;;25.28;57.52
11692;BME280;33659;42.672;23.354;2023-06-22T07:17:09;69639.91;;;25.38;57.55
11692;BME280;33659;42.672;23.354;2023-06-22T07:19:36;69642.09;;;25.41;57.33
11692;BME280;33659;42.672;23.354;2023-06-22T07:22:03;69644.91;;;25.46;57.51
11692;BME280;33659;42.672;23.354;2023-06-22T07:24:29;69724.78;;;25.53;57.40
11692;BME280;33659;42.672;23.354;2023-06-22T07:26:57;69661.28;;;25.61;56.54
11692;BME280;33659;42.672;23.354;2023-06-22T07:29:26;69653.53;;;25.69;56.53
11692;BME280;33659;42.672;23.354;2023-06-22T07:31:53;69677.22;;;25.78;56.23
11692;BME280;33659;42.672;23.354;2023-06-22T07:34:21;69669.47;;;25.86;56.02
11692;BME280;33659;42.672;23.354;2023-06-22T07:36:48;69682.81;;;25.88;56.38
11692;BME280;33659;42.672;23.354;2023-06-22T07:39:15;69695.66;;;25.90;55.74
11692;BME280;33659;42.672;23.354;2023-06-22T07:41:42;69696.25;;;25.93;55.75
11692;BME280;33659;42.672;23.354;2023-06-22T07:44:08;69697.03;;;26.02;55.51
11692;BME280;33659;42.672;23.354;2023-06-22T07:46:37;69711.56;;;26.08;55.74
11692;BME280;33659;42.672;23.354;2023-06-22T07:49:03;69711.56;;;26.08;56.47
11692;BME280;33659;42.672;23.354;2023-06-22T07:51:30;69713.22;;;26.09;56.06
11692;BME280;33659;42.672;23.354;2023-06-22T07:53:57;69789.81;;;26.11;55.73
11692;BME280;33659;42.672;23.354;2023-06-22T07:56:23;69721.41;;;26.17;56.08
11692;BME280;33659;42.672;23.354;2023-06-22T07:58:50;69802.84;;;26.21;55.35
11692;BME280;33659;42.672;23.354;2023-06-22T08:01:17;69732.78;;;26.25;54.59
11692;BME280;33659;42.672;23.354;2023-06-22T08:03:47;69734.50;;;26.29;54.88
11692;BME280;33659;42.672;23.354;2023-06-22T08:06:14;69810.59;;;26.31;54.97
11692;BME280;33659;42.672;23.354;2023-06-22T08:08:41;69740.44;;;26.32;54.59
11692;BME280;33659;42.672;23.354;2023-06-22T08:11:09;69739.03;;;26.38;54.03
11692;BME280;33659;42.672;23.354;2023-06-22T08:13:35;69823.81;;;26.45;54.25
11692;BME280;33659;42.672;23.354;2023-06-22T08:16:02;69740.97;;;26.50;53.89
11692;BME280;33659;42.672;23.354;2023-06-22T08:18:29;69754.00;;;26.60;53.46
11692;BME280;33659;42.672;23.354;2023-06-22T08:20:57;69769.78;;;26.72;52.67
11692;BME280;33659;42.672;23.354;2023-06-22T08:23:24;69786.94;;;26.76;52.91
11692;BME280;33659;42.672;23.354;2023-06-22T08:25:51;69770.47;;;26.78;52.75
11692;BME280;33659;42.672;23.354;2023-06-22T08:28:17;69868.06;;;26.84;52.50
11692;BME280;33659;42.672;23.354;2023-06-22T08:30:44;69801.69;;;26.89;52.80
11692;BME280;33659;42.672;23.354;2023-06-22T08:33:11;69803.41;;;26.93;53.28
11692;BME280;33659;42.672;23.354;2023-06-22T08:35:38;69806.13;;;26.96;53.09
11692;BME280;33659;42.672;23.354;2023-06-22T08:38:06;69795.41;;;26.93;52.39
11692;BME280;33659;42.672;23.354;2023-06-22T08:40:33;69805.03;;;26.95;52.88
11692;BME280;33659;42.672;23.354;2023-06-22T08:42:59;69803.94;;;26.94;53.97
11692;BME280;33659;42.672;23.354;2023-06-22T08:45:26;69807.22;;;26.97;53.52
11692;BME280;33659;42.672;23.354;2023-06-22T08:47:53;69887.75;;;27.03;52.98
11692;BME280;33659;42.672;23.354;2023-06-22T08:50:20;69800.13;;;26.90;52.20
11692;BME280;33659;42.672;23.354;2023-06-22T08:52:46;69785.91;;;26.77;52.72
11692;BME280;33659;42.672;23.354;2023-06-22T08:55:14;69785.28;;;26.74;52.82
11692;BME280;33659;42.672;23.354;2023-06-22T08:57:41;69790.28;;;26.81;52.37
11692;BME280;33659;42.672;23.354;2023-06-22T09:00:10;69800.13;;;26.90;51.93
11692;BME280;33659;42.672;23.354;2023-06-22T09:02:42;69802.22;;;26.90;51.73
11692;BME280;33659;42.672;23.354;2023-06-22T09:05:09;69784.09;;;26.88;52.58
11692;BME280;33659;42.672;23.354;2023-06-22T09:07:36;69799.03;;;26.89;53.11
11692;BME280;33659;42.672;23.354;2023-06-22T09:10:03;69798.00;;;26.91;52.60
11692;BME280;33659;42.672;23.354;2023-06-22T09:12:33;69783.06;;;26.89;52.22
11692;BME280;33659;42.672;23.354;2023-06-22T09:15:00;69784.47;;;26.83;51.15
11692;BME280;33659;42.672;23.354;2023-06-22T09:17:28;69791.38;;;26.82;51.68
11692;BME280;33659;42.672;23.354;2023-06-22T09:19:55;69794.09;;;26.85;52.05
11692;BME280;33659;42.672;23.354;2023-06-22T09:22:22;69804.50;;;26.94;52.87
11692;BME280;33659;42.672;23.354;2023-06-22T09:24:54;69805.19;;;27.00;51.20
11692;BME280;33659;42.672;23.354;2023-06-22T09:27:21;69804.22;;;27.04;50.75
11692;BME280;33659;42.672;23.354;2023-06-22T09:29:49;69817.09;;;27.06;51.57
11692;BME280;33659;42.672;23.354;2023-06-22T09:32:16;69889.94;;;27.05;52.22
11692;BME280;33659;42.672;23.354;2023-06-22T09:34:43;69813.63;;;26.98;51.99
11692;BME280;33659;42.672;23.354;2023-06-22T09:37:09;69811.06;;;27.00;51.96
11692;BME280;33659;42.672;23.354;2023-06-22T09:39:36;69813.22;;;27.03;52.36
11692;BME280;33659;42.672;23.354;2023-06-22T09:42:03;69818.72;;;27.08;51.35
11692;BME280;33659;42.672;23.354;2023-06-22T09:44:31;69893.88;;;27.11;51.01
11692;BME280;33659;42.672;23.354;2023-06-22T09:46:59;69809.31;;;27.14;50.35
11692;BME280;33659;42.672;23.354;2023-06-22T09:49:26;69902.00;;;27.16;50.33
11692;BME280;33659;42.672;23.354;2023-06-22T09:51:53;69827.06;;;27.20;51.01
11692;BME280;33659;42.672;23.354;2023-06-22T09:54:19;69816.47;;;27.23;51.68
11692;BME280;33659;42.672;23.354;2023-06-22T09:56:46;69843.25;;;27.28;51.56
11692;BME280;33659;42.672;23.354;2023-06-22T09:59:13;69842.72;;;27.27;51.33
11692;BME280;33659;42.672;23.354;2023-06-22T10:01:40;69917.34;;;27.30;51.93
11692;BME280;33659;42.672;23.354;2023-06-22T10:04:08;69835.59;;;27.21;50.76
11692;BME280;33659;42.672;23.354;2023-06-22T10:06:34;69913.03;;;27.29;51.10
11692;BME280;33659;42.672;23.354;2023-06-22T10:09:01;69837.31;;;27.25;51.32
11692;BME280;33659;42.672;23.354;2023-06-22T10:11:28;69836.84;;;27.27;50.49
11692;BME280;33659;42.672;23.354;2023-06-22T10:13:56;69827.47;;;27.16;50.58
11692;BME280;33659;42.672;23.354;2023-06-22T10:16:24;69847.16;;;27.34;50.88
11692;BME280;33659;42.672;23.354;2023-06-22T10:18:52;69837.03;;;27.35;49.57
11692;BME280;33659;42.672;23.354;2023-06-22T10:21:20;69839.31;;;27.39;50.76
11692;BME280;33659;42.672;23.354;2023-06-22T10:23:47;69935.94;;;27.47;48.47
11692;BME280;33659;42.672;23.354;2023-06-22T10:26:13;69870.13;;;27.56;48.63
11692;BME280;33659;42.672;23.354;2023-06-22T10:28:40;69879.34;;;27.62;48.34
11692;BME280;33659;42.672;23.354;2023-06-22T10:31:07;69880.44;;;27.63;47.86
11692;BME280;33659;42.672;23.354;2023-06-22T10:33:34;69890.78;;;27.70;47.12
11692;BME280;33659;42.672;23.354;2023-06-22T10:36:00;69885.19;;;27.79;47.08
11692;BME280;33659;42.672;23.354;2023-06-22T10:38:28;69904.69;;;27.90;46.17
11692;BME280;33659;42.672;23.354;2023-06-22T10:40:55;69911.59;;;27.89;47.16
11692;BME280;33659;42.672;23.354;2023-06-22T10:43:22;69926.41;;;28.05;46.15
11692;BME280;33659;42.672;23.354;2023-06-22T10:45:49;69935.69;;;28.14;46.41
11692;BME280;33659;42.672;23.354;2023-06-22T10:48:15;69933.72;;;28.20;46.18
11692;BME280;33659;42.672;23.354;2023-06-22T10:50:42;69950.50;;;28.28;45.62
11692;BME280;33659;42.672;23.354;2023-06-22T10:53:09;69946.31;;;28.31;45.69
11692;BME280;33659;42.672;23.354;2023-06-22T10:55:37;69958.16;;;28.35;45.26
11692;BME280;33659;42.672;23.354;2023-06-22T10:58:04;69952.97;;;28.40;44.50
11692;BME280;33659;42.672;23.354;2023-06-22T11:00:30;69960.97;;;28.40;44.25
11692;BME280;33659;42.672;23.354;2023-06-22T11:02:57;69934.28;;;28.20;44.02
11692;BME280;33659;42.672;23.354;2023-06-22T11:05:24;69955.97;;;28.33;44.22
11692;BME280;33659;42.672;23.354;2023-06-22T11:07:50;69946.97;;;28.35;44.42
11692;BME280;33659;42.672;23.354;2023-06-22T11:10:17;69957.69;;;28.37;45.01
11692;BME280;33659;42.672;23.354;2023-06-22T11:12:45;69952.22;;;28.32;44.29
11692;BME280;33659;42.672;23.354;2023-06-22T11:15:12;69938.59;;;28.22;45.40
11692;BME280;33659;42.672;23.354;2023-06-22T11:17:39;69927.28;;;28.19;45.67
11692;BME280;33659;42.672;23.354;2023-06-22T11:20:07;69944.53;;;28.25;45.16
11692;BME280;33659;42.672;23.354;2023-06-22T11:22:36;69950.72;;;28.36;45.14
11692;BME280;33659;42.672;23.354;2023-06-22T11:25:05;69964.53;;;28.53;45.68
11692;BME280;33659;42.672;23.354;2023-06-22T11:27:32;69993.19;;;28.68;45.43
11692;BME280;33659;42.672;23.354;2023-06-22T11:30:00;70008.03;;;28.84;44.19
11692;BME280;33659;42.672;23.354;2023-06-22T11:32:27;70023.44;;;29.01;43.92
11692;BME280;33659;42.672;23.354;2023-06-22T11:34:54;70026.50;;;29.16;44.02
11692;BME280;33659;42.672;23.354;2023-06-22T11:37:20;70055.75;;;29.31;43.14
11692;BME280;33659;42.672;23.354;2023-06-22T11:39:47;70049.41;;;29.35;42.66
11692;BME280;33659;42.672;23.354;2023-06-22T11:42:14;70060.59;;;29.33;42.15
11692;BME280;33659;42.672;23.354;2023-06-22T11:44:42;70037.66;;;29.14;41.86
11692;BME280;33659;42.672;23.354;2023-06-22T11:47:11;70025.56;;;29.00;43.21
11692;BME280;33659;42.672;23.354;2023-06-22T11:49:37;70017.69;;;29.05;42.50
11692;BME280;33659;42.672;23.354;2023-06-22T11:52:05;70020.59;;;29.16;43.22
11692;BME280;33659;42.672;23.354;2023-06-22T11:54:32;70039.16;;;29.30;42.58
11692;BME280;33659;42.672;23.354;2023-06-22T11:56:59;70059.16;;;29.39;42.81
11692;BME280;33659;42.672;23.354;2023-06-22T11:59:26;70068.66;;;29.35;42.87
11692;BME280;33659;42.672;23.354;2023-06-22T12:01:53;70060.72;;;29.38;41.76
11692;BME280;33659;42.672;23.354;2023-06-22T12:04:21;70043.53;;;29.34;42.27
11692;BME280;33659;42.672;23.354;2023-06-22T12:06:47;70047.44;;;29.40;42.31
11692;BME280;33659;42.672;23.354;2023-06-22T12:09:14;70067.09;;;29.36;42.52
11692;BME280;33659;42.672;23.354;2023-06-22T12:11:41;70049.63;;;29.42;42.05
11692;BME280;33659;42.672;23.354;2023-06-22T12:14:08;70068.41;;;29.45;42.09
11692;BME280;33659;42.672;23.354;2023-06-22T12:16:35;70049.00;;;29.39;42.97
11692;BME280;33659;42.672;23.354;2023-06-22T12:19:02;70054.16;;;29.32;43.45
11692;BME280;33659;42.672;23.354;2023-06-22T12:21:30;70036.28;;;29.23;43.31
11692;BME280;33659;42.672;23.354;2023-06-22T12:23:56;70022.75;;;28.95;45.05
11692;BME280;33659;42.672;23.354;2023-06-22T12:26:23;69990.66;;;28.73;45.90
11692;BME280;33659;42.672;23.354;2023-06-22T12:28:50;69975.06;;;28.48;47.17
11692;BME280;33659;42.672;23.354;2023-06-22T12:31:17;69920.47;;;28.22;47.60
11692;BME280;33659;42.672;23.354;2023-06-22T12:33:43;69923.75;;;28.05;48.24
11692;BME280;33659;42.672;23.354;2023-06-22T12:36:10;69909.53;;;27.92;48.80
11692;BME280;33659;42.672;23.354;2023-06-22T12:38:39;69874.50;;;27.60;48.68
11692;BME280;33659;42.672;23.354;2023-06-22T12:41:05;69812.09;;;26.99;53.26
11692;BME280;33659;42.672;23.354;2023-06-22T12:43:32;69763.50;;;26.56;55.43
11692;BME280;33659;42.672;23.354;2023-06-22T12:45:59;69739.97;;;26.34;56.53
11692;BME280;33659;42.672;23.354;2023-06-22T12:48:26;69798.16;;;26.24;58.34
11692;BME280;33659;42.672;23.354;2023-06-22T12:50:53;69709.91;;;26.06;59.17
11692;BME280;33659;42.672;23.354;2023-06-22T12:53:20;69694.06;;;25.91;58.91